sensor_id;sensor_type;location;lat;lon;timestamp;pressure;altitude;pressure_sealevel;temperature
65823;BMP180;52585;47.566;19.056;2023-03-14T00:00:16;99618.80;;;8.20
65823;BMP180;52585;47.566;19.056;2023-03-14T00:02:41;99602.60;;;8.10
65823;BMP180;52585;47.566;19.056;2023-03-14T00:05:09;99605.80;;;8.10
65823;BMP180;52585;47.566;19.056;2023-03-14T00:07:39;99598.00;;;8.00
65823;BMP180;52585;47.566;19.056;2023-03-14T00:10:10;99593.80;;;8.00
65823;BMP180;52585;47.566;19.056;2023-03-14T00:12:36;99597.60;;;7.90
65823;BMP180;52585;47.566;19.056;2023-03-14T00:15:02;99586.20;;;7.86
65823;BMP180;52585;47.566;19.056;2023-03-14T00:17:30;99584.60;;;7.80
65823;BMP180;52585;47.566;19.056;2023-03-14T00:19:56;99580.80;;;7.80
65823;BMP180;52585;47.566;19.056;2023-03-14T00:22:22;99576.20;;;7.70
65823;BMP180;52585;47.566;19.056;2023-03-14T00:24:47;99574.40;;;7.68
65823;BMP180;52585;47.566;19.056;2023-03-14T00:27:13;99571.20;;;7.62
65823;BMP180;52585;47.566;19.056;2023-03-14T00:29:39;99562.00;;;7.60
65823;BMP180;52585;47.566;19.056;2023-03-14T00:32:05;99558.60;;;7.60
65823;BMP180;52585;47.566;19.056;2023-03-14T00:34:32;99551.40;;;7.60
65823;BMP180;52585;47.566;19.056;2023-03-14T00:36:57;99543.40;;;7.60
65823;BMP180;52585;47.566;19.056;2023-03-14T00:39:23;99544.00;;;7.60
65823;BMP180;52585;47.566;19.056;2023-03-14T00:41:49;99540.40;;;7.70
65823;BMP180;52585;47.566;19.056;2023-03-14T00:44:14;99535.00;;;7.70
65823;BMP180;52585;47.566;19.056;2023-03-14T00:46:40;99546.40;;;7.70
65823;BMP180;52585;47.566;19.056;2023-03-14T00:49:05;99545.20;;;7.70
65823;BMP180;52585;47.566;19.056;2023-03-14T00:51:31;99544.40;;;7.70
65823;BMP180;52585;47.566;19.056;2023-03-14T00:53:56;99536.20;;;7.70
65823;BMP180;52585;47.566;19.056;2023-03-14T00:56:22;99532.40;;;7.78
65823;BMP180;52585;47.566;19.056;2023-03-14T00:58:47;99528.80;;;7.80
65823;BMP180;52585;47.566;19.056;2023-03-14T01:01:17;99526.20;;;7.78
65823;BMP180;52585;47.566;19.056;2023-03-14T01:03:44;99527.00;;;7.70
65823;BMP180;52585;47.566;19.056;2023-03-14T01:06:14;99521.80;;;7.70
65823;BMP180;52585;47.566;19.056;2023-03-14T01:08:41;99516.80;;;7.70
65823;BMP180;52585;47.566;19.056;2023-03-14T01:11:13;99513.60;;;7.68
65823;BMP180;52585;47.566;19.056;2023-03-14T01:13:40;99518.60;;;7.70
65823;BMP180;52585;47.566;19.056;2023-03-14T01:16:09;99513.60;;;7.60
65823;BMP180;52585;47.566;19.056;2023-03-14T01:18:36;99510.20;;;7.66
65823;BMP180;52585;47.566;19.056;2023-03-14T01:21:16;99505.40;;;7.70
65823;BMP180;52585;47.566;19.056;2023-03-14T01:23:43;99501.40;;;7.60
65823;BMP180;52585;47.566;19.056;2023-03-14T01:26:14;99484.60;;;7.52
65823;BMP180;52585;47.566;19.056;2023-03-14T01:28:41;99484.80;;;7.50
65823;BMP180;52585;47.566;19.056;2023-03-14T01:31:10;99483.20;;;7.50
65823;BMP180;52585;47.566;19.056;2023-03-14T01:33:36;99474.00;;;7.40
65823;BMP180;52585;47.566;19.056;2023-03-14T01:36:03;99467.00;;;7.34
65823;BMP180;52585;47.566;19.056;2023-03-14T01:38:34;99463.60;;;7.30
65823;BMP180;52585;47.566;19.056;2023-03-14T01:41:01;99463.20;;;7.20
65823;BMP180;52585;47.566;19.056;2023-03-14T01:43:29;99461.60;;;7.20
65823;BMP180;52585;47.566;19.056;2023-03-14T01:48:38;99451.00;;;7.10
65823;BMP180;52585;47.566;19.056;2023-03-14T01:51:13;99439.40;;;7.10
65823;BMP180;52585;47.566;19.056;2023-03-14T01:53:42;99433.80;;;7.10
65823;BMP180;52585;47.566;19.056;2023-03-14T01:56:13;99431.20;;;7.10
65823;BMP180;52585;47.566;19.056;2023-03-14T01:58:45;99425.80;;;7.04
65823;BMP180;52585;47.566;19.056;2023-03-14T02:01:11;99428.40;;;7.00
65823;BMP180;52585;47.566;19.056;2023-03-14T02:03:50;99426.80;;;7.00
65823;BMP180;52585;47.566;19.056;2023-03-14T02:06:22;99419.60;;;7.00
65823;BMP180;52585;47.566;19.056;2023-03-14T02:08:48;99416.20;;;6.90
65823;BMP180;52585;47.566;19.056;2023-03-14T02:11:17;99405.60;;;6.90
65823;BMP180;52585;47.566;19.056;2023-03-14T02:13:43;99388.60;;;6.80
65823;BMP180;52585;47.566;19.056;2023-03-14T02:16:10;99387.80;;;6.80
65823;BMP180;52585;47.566;19.056;2023-03-14T02:18:36;99378.80;;;6.80
65823;BMP180;52585;47.566;19.056;2023-03-14T02:21:13;99373.00;;;6.80
65823;BMP180;52585;47.566;19.056;2023-03-14T02:26:39;99369.60;;;6.70
65823;BMP180;52585;47.566;19.056;2023-03-14T02:29:07;99370.60;;;6.70
65823;BMP180;52585;47.566;19.056;2023-03-14T02:31:33;99373.40;;;6.64
65823;BMP180;52585;47.566;19.056;2023-03-14T02:34:00;99371.40;;;6.70
65823;BMP180;52585;47.566;19.056;2023-03-14T02:36:27;99360.80;;;6.80
65823;BMP180;52585;47.566;19.056;2023-03-14T02:39:08;99360.60;;;6.80
65823;BMP180;52585;47.566;19.056;2023-03-14T02:41:36;99351.00;;;6.80
65823;BMP180;52585;47.566;19.056;2023-03-14T02:44:02;99351.00;;;6.80
65823;BMP180;52585;47.566;19.056;2023-03-14T02:46:28;99345.20;;;6.80
65823;BMP180;52585;47.566;19.056;2023-03-14T02:49:01;99351.80;;;6.74
65823;BMP180;52585;47.566;19.056;2023-03-14T02:51:29;99347.40;;;6.70
65823;BMP180;52585;47.566;19.056;2023-03-14T02:53:55;99348.20;;;6.62
65823;BMP180;52585;47.566;19.056;2023-03-14T02:56:21;99339.00;;;6.60
65823;BMP180;52585;47.566;19.056;2023-03-14T02:58:47;99345.20;;;6.60
65823;BMP180;52585;47.566;19.056;2023-03-14T03:01:13;99337.80;;;6.50
65823;BMP180;52585;47.566;19.056;2023-03-14T03:03:38;99327.60;;;6.50
65823;BMP180;52585;47.566;19.056;2023-03-14T03:06:04;99324.20;;;6.50
65823;BMP180;52585;47.566;19.056;2023-03-14T03:08:31;99320.00;;;6.42
65823;BMP180;52585;47.566;19.056;2023-03-14T03:10:58;99324.00;;;6.40
65823;BMP180;52585;47.566;19.056;2023-03-14T03:13:24;99324.60;;;6.44
65823;BMP180;52585;47.566;19.056;2023-03-14T03:15:49;99329.80;;;6.40
65823;BMP180;52585;47.566;19.056;2023-03-14T03:18:15;99329.80;;;6.48
65823;BMP180;52585;47.566;19.056;2023-03-14T03:20:41;99328.80;;;6.50
65823;BMP180;52585;47.566;19.056;2023-03-14T03:23:07;99322.60;;;6.58
65823;BMP180;52585;47.566;19.056;2023-03-14T03:25:32;99320.80;;;6.60
65823;BMP180;52585;47.566;19.056;2023-03-14T03:27:58;99319.20;;;6.54
65823;BMP180;52585;47.566;19.056;2023-03-14T03:30:24;99322.40;;;6.58
65823;BMP180;52585;47.566;19.056;2023-03-14T03:32:50;99315.40;;;6.50
65823;BMP180;52585;47.566;19.056;2023-03-14T03:35:15;99305.60;;;6.48
65823;BMP180;52585;47.566;19.056;2023-03-14T03:37:41;99309.00;;;6.40
65823;BMP180;52585;47.566;19.056;2023-03-14T03:40:09;99309.60;;;6.32
65823;BMP180;52585;47.566;19.056;2023-03-14T03:42:35;99311.40;;;6.40
65823;BMP180;52585;47.566;19.056;2023-03-14T03:45:03;99299.00;;;6.38
65823;BMP180;52585;47.566;19.056;2023-03-14T03:47:31;99302.60;;;6.30
65823;BMP180;52585;47.566;19.056;2023-03-14T03:49:56;99292.60;;;6.20
65823;BMP180;52585;47.566;19.056;2023-03-14T03:52:22;99293.80;;;6.20
65823;BMP180;52585;47.566;19.056;2023-03-14T03:54:48;99292.60;;;6.30
65823;BMP180;52585;47.566;19.056;2023-03-14T03:57:13;99285.80;;;6.28
65823;BMP180;52585;47.566;19.056;2023-03-14T03:59:39;99294.40;;;6.20
65823;BMP180;52585;47.566;19.056;2023-03-14T04:02:07;99294.00;;;6.20
65823;BMP180;52585;47.566;19.056;2023-03-14T04:04:33;99293.80;;;6.30
65823;BMP180;52585;47.566;19.056;2023-03-14T04:06:58;99284.40;;;6.20
65823;BMP180;52585;47.566;19.056;2023-03-14T04:09:24;99277.80;;;6.10
65823;BMP180;52585;47.566;19.056;2023-03-14T04:11:50;99265.40;;;6.10
65823;BMP180;52585;47.566;19.056;2023-03-14T04:14:15;99266.00;;;6.00
65823;BMP180;52585;47.566;19.056;2023-03-14T04:16:41;99278.60;;;5.98
65823;BMP180;52585;47.566;19.056;2023-03-14T04:19:07;99279.00;;;6.00
65823;BMP180;52585;47.566;19.056;2023-03-14T04:21:32;99282.00;;;6.10
65823;BMP180;52585;47.566;19.056;2023-03-14T04:23:58;99276.00;;;6.10
65823;BMP180;52585;47.566;19.056;2023-03-14T04:26:24;99278.00;;;6.04
65823;BMP180;52585;47.566;19.056;2023-03-14T04:28:49;99270.80;;;6.00
65823;BMP180;52585;47.566;19.056;2023-03-14T04:31:20;99268.00;;;5.92
65823;BMP180;52585;47.566;19.056;2023-03-14T04:33:46;99262.20;;;5.90
65823;BMP180;52585;47.566;19.056;2023-03-14T04:36:13;99258.20;;;5.90
65823;BMP180;52585;47.566;19.056;2023-03-14T04:38:39;99258.60;;;5.80
65823;BMP180;52585;47.566;19.056;2023-03-14T04:41:05;99263.60;;;5.80
65823;BMP180;52585;47.566;19.056;2023-03-14T04:43:32;99271.80;;;5.78
65823;BMP180;52585;47.566;19.056;2023-03-14T04:45:58;99271.20;;;5.80
65823;BMP180;52585;47.566;19.056;2023-03-14T04:48:25;99278.00;;;5.80
65823;BMP180;52585;47.566;19.056;2023-03-14T04:50:51;99276.80;;;5.80
65823;BMP180;52585;47.566;19.056;2023-03-14T04:53:18;99282.20;;;5.80
65823;BMP180;52585;47.566;19.056;2023-03-14T04:55:55;99275.80;;;5.80
65823;BMP180;52585;47.566;19.056;2023-03-14T04:58:22;99272.00;;;5.80
65823;BMP180;52585;47.566;19.056;2023-03-14T05:00:49;99271.80;;;5.72
65823;BMP180;52585;47.566;19.056;2023-03-14T05:03:17;99271.40;;;5.70
65823;BMP180;52585;47.566;19.056;2023-03-14T05:05:44;99263.60;;;5.70
65823;BMP180;52585;47.566;19.056;2023-03-14T05:08:10;99260.40;;;5.60
65823;BMP180;52585;47.566;19.056;2023-03-14T05:10:36;99260.20;;;5.70
65823;BMP180;52585;47.566;19.056;2023-03-14T05:13:02;99260.40;;;5.70
65823;BMP180;52585;47.566;19.056;2023-03-14T05:15:28;99252.80;;;5.70
65823;BMP180;52585;47.566;19.056;2023-03-14T05:17:54;99245.60;;;5.76
65823;BMP180;52585;47.566;19.056;2023-03-14T05:20:20;99246.00;;;5.80
65823;BMP180;52585;47.566;19.056;2023-03-14T05:22:46;99248.60;;;5.80
65823;BMP180;52585;47.566;19.056;2023-03-14T05:25:12;99249.40;;;5.90
65823;BMP180;52585;47.566;19.056;2023-03-14T05:27:37;99246.60;;;6.00
65823;BMP180;52585;47.566;19.056;2023-03-14T05:30:05;99249.60;;;6.10
65823;BMP180;52585;47.566;19.056;2023-03-14T05:32:31;99248.40;;;6.12
65823;BMP180;52585;47.566;19.056;2023-03-14T05:34:57;99245.80;;;6.18
65823;BMP180;52585;47.566;19.056;2023-03-14T05:37:27;99246.20;;;6.28
65823;BMP180;52585;47.566;19.056;2023-03-14T05:39:52;99242.20;;;6.40
65823;BMP180;52585;47.566;19.056;2023-03-14T05:42:18;99236.40;;;6.40
65823;BMP180;52585;47.566;19.056;2023-03-14T05:44:44;99228.00;;;6.50
65823;BMP180;52585;47.566;19.056;2023-03-14T05:47:09;99228.40;;;6.60
65823;BMP180;52585;47.566;19.056;2023-03-14T05:49:35;99224.40;;;6.70
65823;BMP180;52585;47.566;19.056;2023-03-14T05:52:01;99227.20;;;6.84
65823;BMP180;52585;47.566;19.056;2023-03-14T05:54:26;99231.60;;;6.96
65823;BMP180;52585;47.566;19.056;2023-03-14T05:56:52;99228.00;;;7.10
65823;BMP180;52585;47.566;19.056;2023-03-14T05:59:18;99226.40;;;7.20
65823;BMP180;52585;47.566;19.056;2023-03-14T06:01:43;99227.40;;;7.30
65823;BMP180;52585;47.566;19.056;2023-03-14T06:04:09;99236.40;;;7.42
65823;BMP180;52585;47.566;19.056;2023-03-14T06:06:34;99229.40;;;7.60
65823;BMP180;52585;47.566;19.056;2023-03-14T06:09:01;99228.60;;;7.70
65823;BMP180;52585;47.566;19.056;2023-03-14T06:11:26;99228.40;;;7.80
65823;BMP180;52585;47.566;19.056;2023-03-14T06:13:52;99233.40;;;7.90
65823;BMP180;52585;47.566;19.056;2023-03-14T06:16:18;99228.60;;;8.00
65823;BMP180;52585;47.566;19.056;2023-03-14T06:18:44;99227.20;;;8.16
65823;BMP180;52585;47.566;19.056;2023-03-14T06:21:12;99233.00;;;8.30
65823;BMP180;52585;47.566;19.056;2023-03-14T06:23:38;99233.00;;;8.38
65823;BMP180;52585;47.566;19.056;2023-03-14T06:26:04;99232.40;;;8.48
65823;BMP180;52585;47.566;19.056;2023-03-14T06:28:30;99226.60;;;8.56
65823;BMP180;52585;47.566;19.056;2023-03-14T06:30:56;99223.00;;;8.62
65823;BMP180;52585;47.566;19.056;2023-03-14T06:33:23;99224.20;;;8.70
65823;BMP180;52585;47.566;19.056;2023-03-14T06:35:49;99233.80;;;8.80
65823;BMP180;52585;47.566;19.056;2023-03-14T06:38:14;99226.40;;;8.86
65823;BMP180;52585;47.566;19.056;2023-03-14T06:40:40;99220.20;;;8.90
65823;BMP180;52585;47.566;19.056;2023-03-14T06:43:05;99221.40;;;8.96
65823;BMP180;52585;47.566;19.056;2023-03-14T06:45:31;99220.80;;;9.00
65823;BMP180;52585;47.566;19.056;2023-03-14T06:47:57;99226.60;;;9.10
65823;BMP180;52585;47.566;19.056;2023-03-14T06:50:23;99223.80;;;9.10
65823;BMP180;52585;47.566;19.056;2023-03-14T06:52:48;99227.20;;;9.20
65823;BMP180;52585;47.566;19.056;2023-03-14T06:55:15;99227.20;;;9.22
65823;BMP180;52585;47.566;19.056;2023-03-14T06:57:41;99235.40;;;9.30
65823;BMP180;52585;47.566;19.056;2023-03-14T07:00:08;99236.60;;;9.30
65823;BMP180;52585;47.566;19.056;2023-03-14T07:02:34;99230.20;;;9.40
65823;BMP180;52585;47.566;19.056;2023-03-14T07:04:59;99227.20;;;9.40
65823;BMP180;52585;47.566;19.056;2023-03-14T07:07:27;99232.00;;;9.48
65823;BMP180;52585;47.566;19.056;2023-03-14T07:09:53;99232.00;;;9.50
65823;BMP180;52585;47.566;19.056;2023-03-14T07:12:19;99228.20;;;9.50
65823;BMP180;52585;47.566;19.056;2023-03-14T07:14:44;99226.60;;;9.54
65823;BMP180;52585;47.566;19.056;2023-03-14T07:17:10;99227.40;;;9.60
65823;BMP180;52585;47.566;19.056;2023-03-14T07:19:36;99230.20;;;9.62
65823;BMP180;52585;47.566;19.056;2023-03-14T07:22:04;99228.40;;;9.70
65823;BMP180;52585;47.566;19.056;2023-03-14T07:24:30;99231.00;;;9.70
65823;BMP180;52585;47.566;19.056;2023-03-14T07:26:55;99231.60;;;9.80
65823;BMP180;52585;47.566;19.056;2023-03-14T07:29:21;99222.40;;;9.80
65823;BMP180;52585;47.566;19.056;2023-03-14T07:31:46;99224.60;;;9.86
65823;BMP180;52585;47.566;19.056;2023-03-14T07:34:12;99222.20;;;9.90
65823;BMP180;52585;47.566;19.056;2023-03-14T07:36:38;99224.60;;;9.90
65823;BMP180;52585;47.566;19.056;2023-03-14T07:39:04;99223.60;;;10.00
65823;BMP180;52585;47.566;19.056;2023-03-14T07:41:30;99223.00;;;10.02
65823;BMP180;52585;47.566;19.056;2023-03-14T07:43:56;99217.20;;;10.10
65823;BMP180;52585;47.566;19.056;2023-03-14T07:46:21;99215.20;;;10.20
65823;BMP180;52585;47.566;19.056;2023-03-14T07:48:47;99210.80;;;10.20
65823;BMP180;52585;47.566;19.056;2023-03-14T07:51:13;99210.40;;;10.30
65823;BMP180;52585;47.566;19.056;2023-03-14T07:53:38;99209.80;;;10.34
65823;BMP180;52585;47.566;19.056;2023-03-14T07:56:05;99208.60;;;10.40
65823;BMP180;52585;47.566;19.056;2023-03-14T07:58:31;99203.80;;;10.50
65823;BMP180;52585;47.566;19.056;2023-03-14T08:00:58;99210.20;;;10.60
65823;BMP180;52585;47.566;19.056;2023-03-14T08:03:24;99198.40;;;10.68
65823;BMP180;52585;47.566;19.056;2023-03-14T08:05:51;99206.80;;;10.70
65823;BMP180;52585;47.566;19.056;2023-03-14T08:08:17;99198.80;;;10.80
65823;BMP180;52585;47.566;19.056;2023-03-14T08:10:44;99193.40;;;10.90
65823;BMP180;52585;47.566;19.056;2023-03-14T08:13:10;99181.00;;;11.00
65823;BMP180;52585;47.566;19.056;2023-03-14T08:15:35;99183.40;;;11.08
65823;BMP180;52585;47.566;19.056;2023-03-14T08:18:04;99181.80;;;11.10
65823;BMP180;52585;47.566;19.056;2023-03-14T08:20:30;99174.40;;;11.20
65823;BMP180;52585;47.566;19.056;2023-03-14T08:23:01;99172.60;;;11.30
65823;BMP180;52585;47.566;19.056;2023-03-14T08:25:28;99183.40;;;11.40
65823;BMP180;52585;47.566;19.056;2023-03-14T08:27:54;99184.40;;;11.40
65823;BMP180;52585;47.566;19.056;2023-03-14T08:30:22;99176.00;;;11.46
65823;BMP180;52585;47.566;19.056;2023-03-14T08:32:48;99174.40;;;11.50
65823;BMP180;52585;47.566;19.056;2023-03-14T08:35:15;99168.40;;;11.60
65823;BMP180;52585;47.566;19.056;2023-03-14T08:37:41;99165.40;;;11.70
65823;BMP180;52585;47.566;19.056;2023-03-14T08:40:10;99172.60;;;11.74
65823;BMP180;52585;47.566;19.056;2023-03-14T08:42:41;99169.80;;;11.80
65823;BMP180;52585;47.566;19.056;2023-03-14T08:45:10;99163.80;;;11.90
65823;BMP180;52585;47.566;19.056;2023-03-14T08:47:36;99163.20;;;12.00
65823;BMP180;52585;47.566;19.056;2023-03-14T08:50:05;99161.20;;;12.10
65823;BMP180;52585;47.566;19.056;2023-03-14T08:52:32;99159.80;;;12.18
65823;BMP180;52585;47.566;19.056;2023-03-14T08:54:58;99159.60;;;12.24
65823;BMP180;52585;47.566;19.056;2023-03-14T08:57:24;99142.60;;;12.40
65823;BMP180;52585;47.566;19.056;2023-03-14T08:59:56;99139.80;;;12.50
65823;BMP180;52585;47.566;19.056;2023-03-14T09:02:25;99127.20;;;12.60
65823;BMP180;52585;47.566;19.056;2023-03-14T09:04:51;99122.80;;;12.72
65823;BMP180;52585;47.566;19.056;2023-03-14T09:07:18;99119.00;;;12.82
65823;BMP180;52585;47.566;19.056;2023-03-14T09:09:44;99118.60;;;12.98
65823;BMP180;52585;47.566;19.056;2023-03-14T09:12:10;99136.20;;;13.10
65823;BMP180;52585;47.566;19.056;2023-03-14T09:14:36;99127.80;;;13.20
65823;BMP180;52585;47.566;19.056;2023-03-14T09:17:03;99115.00;;;13.30
65823;BMP180;52585;47.566;19.056;2023-03-14T09:19:29;99113.80;;;13.40
65823;BMP180;52585;47.566;19.056;2023-03-14T09:21:54;99107.00;;;13.50
65823;BMP180;52585;47.566;19.056;2023-03-14T09:24:20;99107.00;;;13.60
65823;BMP180;52585;47.566;19.056;2023-03-14T09:26:46;99099.00;;;13.78
65823;BMP180;52585;47.566;19.056;2023-03-14T09:29:12;99089.80;;;13.90
65823;BMP180;52585;47.566;19.056;2023-03-14T09:31:38;99093.40;;;13.90
65823;BMP180;52585;47.566;19.056;2023-03-14T09:34:04;99087.20;;;14.00
65823;BMP180;52585;47.566;19.056;2023-03-14T09:36:30;99087.40;;;14.10
65823;BMP180;52585;47.566;19.056;2023-03-14T09:38:55;99087.40;;;14.20
65823;BMP180;52585;47.566;19.056;2023-03-14T09:41:25;99097.40;;;14.30
65823;BMP180;52585;47.566;19.056;2023-03-14T09:44:21;99094.60;;;14.40
65823;BMP180;52585;47.566;19.056;2023-03-14T09:46:52;99080.20;;;14.40
65823;BMP180;52585;47.566;19.056;2023-03-14T09:49:38;99079.60;;;14.50
65823;BMP180;52585;47.566;19.056;2023-03-14T09:52:30;99070.80;;;14.58
65823;BMP180;52585;47.566;19.056;2023-03-14T09:55:10;99067.20;;;14.60
65823;BMP180;52585;47.566;19.056;2023-03-14T09:57:39;99070.20;;;14.60
65823;BMP180;52585;47.566;19.056;2023-03-14T10:00:23;99074.60;;;14.60
65823;BMP180;52585;47.566;19.056;2023-03-14T10:02:58;99048.60;;;14.64
65823;BMP180;52585;47.566;19.056;2023-03-14T10:05:26;99034.40;;;14.70
65823;BMP180;52585;47.566;19.056;2023-03-14T10:07:55;99030.20;;;14.70
65823;BMP180;52585;47.566;19.056;2023-03-14T10:10:24;99025.20;;;14.80
65823;BMP180;52585;47.566;19.056;2023-03-14T10:13:01;99019.80;;;14.90
65823;BMP180;52585;47.566;19.056;2023-03-14T10:15:34;99018.00;;;14.92
65823;BMP180;52585;47.566;19.056;2023-03-14T10:18:02;99016.60;;;15.00
65823;BMP180;52585;47.566;19.056;2023-03-14T10:20:37;99024.80;;;15.08
65823;BMP180;52585;47.566;19.056;2023-03-14T10:25:45;99006.20;;;15.24
65823;BMP180;52585;47.566;19.056;2023-03-14T10:31:04;99003.20;;;15.40
65823;BMP180;52585;47.566;19.056;2023-03-14T10:33:34;98986.20;;;15.50
65823;BMP180;52585;47.566;19.056;2023-03-14T10:36:23;98987.40;;;15.56
65823;BMP180;52585;47.566;19.056;2023-03-14T10:42:01;98978.80;;;15.74
65823;BMP180;52585;47.566;19.056;2023-03-14T10:44:29;98975.20;;;15.80
65823;BMP180;52585;47.566;19.056;2023-03-14T10:47:00;98976.20;;;15.90
65823;BMP180;52585;47.566;19.056;2023-03-14T10:49:31;98962.40;;;15.90
65823;BMP180;52585;47.566;19.056;2023-03-14T10:54:55;98961.80;;;16.00
65823;BMP180;52585;47.566;19.056;2023-03-14T10:57:22;98953.60;;;16.10
65823;BMP180;52585;47.566;19.056;2023-03-14T10:59:48;98962.40;;;16.20
65823;BMP180;52585;47.566;19.056;2023-03-14T11:02:45;98962.00;;;16.28
65823;BMP180;52585;47.566;19.056;2023-03-14T11:11:18;98941.20;;;16.50
65823;BMP180;52585;47.566;19.056;2023-03-14T11:16:59;98944.20;;;16.70
65823;BMP180;52585;47.566;19.056;2023-03-14T11:19:46;98934.40;;;16.80
65823;BMP180;52585;47.566;19.056;2023-03-14T11:27:44;98907.00;;;16.80
65823;BMP180;52585;47.566;19.056;2023-03-14T11:35:38;98884.80;;;17.00
65823;BMP180;52585;47.566;19.056;2023-03-14T11:38:34;98877.20;;;17.00
65823;BMP180;52585;47.566;19.056;2023-03-14T11:41:09;98869.60;;;17.00
65823;BMP180;52585;47.566;19.056;2023-03-14T11:43:39;98861.20;;;17.10
65823;BMP180;52585;47.566;19.056;2023-03-14T11:46:23;98868.60;;;17.10
65823;BMP180;52585;47.566;19.056;2023-03-14T11:49:18;98870.40;;;17.10
65823;BMP180;52585;47.566;19.056;2023-03-14T11:51:55;98863.60;;;17.00
65823;BMP180;52585;47.566;19.056;2023-03-14T11:54:52;98845.40;;;17.00
65823;BMP180;52585;47.566;19.056;2023-03-14T11:57:20;98865.60;;;17.00
65823;BMP180;52585;47.566;19.056;2023-03-14T12:10:49;98829.00;;;17.00
65823;BMP180;52585;47.566;19.056;2023-03-14T12:13:17;98827.00;;;17.00
65823;BMP180;52585;47.566;19.056;2023-03-14T12:18:39;98817.80;;;17.00
65823;BMP180;52585;47.566;19.056;2023-03-14T12:21:10;98819.40;;;17.00
65823;BMP180;52585;47.566;19.056;2023-03-14T12:23:53;98823.00;;;17.00
65823;BMP180;52585;47.566;19.056;2023-03-14T12:26:24;98810.00;;;17.00
65823;BMP180;52585;47.566;19.056;2023-03-14T12:42:11;98794.40;;;16.98
65823;BMP180;52585;47.566;19.056;2023-03-14T12:44:50;98790.60;;;16.92
65823;BMP180;52585;47.566;19.056;2023-03-14T12:49:52;98784.80;;;16.90
65823;BMP180;52585;47.566;19.056;2023-03-14T12:52:53;98787.80;;;17.00
65823;BMP180;52585;47.566;19.056;2023-03-14T13:00:51;98768.00;;;16.90
65823;BMP180;52585;47.566;19.056;2023-03-14T13:03:23;98762.40;;;16.82
65823;BMP180;52585;47.566;19.056;2023-03-14T13:05:59;98757.80;;;16.80
65823;BMP180;52585;47.566;19.056;2023-03-14T13:08:44;98758.20;;;16.80
65823;BMP180;52585;47.566;19.056;2023-03-14T13:11:19;98758.20;;;16.74
65823;BMP180;52585;47.566;19.056;2023-03-14T13:13:56;98756.60;;;16.72
65823;BMP180;52585;47.566;19.056;2023-03-14T13:16:22;98758.60;;;16.70
65823;BMP180;52585;47.566;19.056;2023-03-14T13:18:59;98753.20;;;16.70
65823;BMP180;52585;47.566;19.056;2023-03-14T13:21:35;98760.00;;;16.70
65823;BMP180;52585;47.566;19.056;2023-03-14T13:24:21;98761.80;;;16.66
65823;BMP180;52585;47.566;19.056;2023-03-14T13:26:47;98763.40;;;16.62
65823;BMP180;52585;47.566;19.056;2023-03-14T13:29:27;98772.60;;;16.60
65823;BMP180;52585;47.566;19.056;2023-03-14T13:31:56;98777.20;;;16.60
65823;BMP180;52585;47.566;19.056;2023-03-14T13:34:31;98777.40;;;16.60
65823;BMP180;52585;47.566;19.056;2023-03-14T13:36:58;98785.80;;;16.60
65823;BMP180;52585;47.566;19.056;2023-03-14T13:39:27;98790.20;;;16.60
65823;BMP180;52585;47.566;19.056;2023-03-14T13:41:58;98790.20;;;16.52
65823;BMP180;52585;47.566;19.056;2023-03-14T13:44:31;98792.20;;;16.52
65823;BMP180;52585;47.566;19.056;2023-03-14T13:47:03;98793.40;;;16.50
65823;BMP180;52585;47.566;19.056;2023-03-14T13:49:32;98790.80;;;16.50
65823;BMP180;52585;47.566;19.056;2023-03-14T13:52:02;98791.00;;;16.50
65823;BMP180;52585;47.566;19.056;2023-03-14T13:54:31;98794.00;;;16.50
65823;BMP180;52585;47.566;19.056;2023-03-14T13:57:03;98797.60;;;16.50
65823;BMP180;52585;47.566;19.056;2023-03-14T13:59:33;98796.40;;;16.50
65823;BMP180;52585;47.566;19.056;2023-03-14T14:02:06;98801.40;;;16.50
65823;BMP180;52585;47.566;19.056;2023-03-14T14:04:37;98803.00;;;16.50
65823;BMP180;52585;47.566;19.056;2023-03-14T14:07:10;98806.20;;;16.50
65823;BMP180;52585;47.566;19.056;2023-03-14T14:09:41;98799.00;;;16.50
65823;BMP180;52585;47.566;19.056;2023-03-14T14:12:27;98793.40;;;16.50
65823;BMP180;52585;47.566;19.056;2023-03-14T14:17:36;98788.20;;;16.58
65823;BMP180;52585;47.566;19.056;2023-03-14T14:20:08;98785.80;;;16.60
65823;BMP180;52585;47.566;19.056;2023-03-14T14:22:36;98783.40;;;16.60
65823;BMP180;52585;47.566;19.056;2023-03-14T14:25:03;98784.00;;;16.60
65823;BMP180;52585;47.566;19.056;2023-03-14T14:27:44;98781.60;;;16.60
65823;BMP180;52585;47.566;19.056;2023-03-14T14:32:49;98780.20;;;16.60
65823;BMP180;52585;47.566;19.056;2023-03-14T14:35:41;98781.60;;;16.60
65823;BMP180;52585;47.566;19.056;2023-03-14T14:38:16;98781.80;;;16.60
65823;BMP180;52585;47.566;19.056;2023-03-14T14:41:00;98779.00;;;16.62
65823;BMP180;52585;47.566;19.056;2023-03-14T14:43:30;98779.20;;;16.68
65823;BMP180;52585;47.566;19.056;2023-03-14T14:45:58;98782.60;;;16.70
65823;BMP180;52585;47.566;19.056;2023-03-14T14:48:26;98781.80;;;16.70
65823;BMP180;52585;47.566;19.056;2023-03-14T14:51:03;98781.00;;;16.70
65823;BMP180;52585;47.566;19.056;2023-03-14T14:56:15;98773.40;;;16.70
65823;BMP180;52585;47.566;19.056;2023-03-14T14:58:46;98772.40;;;16.70
65823;BMP180;52585;47.566;19.056;2023-03-14T15:01:20;98772.40;;;16.70
65823;BMP180;52585;47.566;19.056;2023-03-14T15:03:51;98771.60;;;16.70
65823;BMP180;52585;47.566;19.056;2023-03-14T15:06:18;98776.00;;;16.70
65823;BMP180;52585;47.566;19.056;2023-03-14T15:08:47;98778.80;;;16.70
65823;BMP180;52585;47.566;19.056;2023-03-14T15:11:21;98782.40;;;16.70
65823;BMP180;52585;47.566;19.056;2023-03-14T15:13:48;98782.60;;;16.64
65823;BMP180;52585;47.566;19.056;2023-03-14T15:16:19;98785.60;;;16.60
65823;BMP180;52585;47.566;19.056;2023-03-14T15:18:54;98797.40;;;16.60
65823;BMP180;52585;47.566;19.056;2023-03-14T15:21:25;98801.00;;;16.60
65823;BMP180;52585;47.566;19.056;2023-03-14T15:23:52;98804.80;;;16.50
65823;BMP180;52585;47.566;19.056;2023-03-14T15:26:25;98811.40;;;16.50
65823;BMP180;52585;47.566;19.056;2023-03-14T15:28:51;98819.20;;;16.50
65823;BMP180;52585;47.566;19.056;2023-03-14T15:31:19;98823.00;;;16.50
65823;BMP180;52585;47.566;19.056;2023-03-14T15:33:47;98828.40;;;16.50